Time;durP1;ratioP1;P1;durP2;ratioP2;P2;SDS_P1;SDS_P2;PMS_P1;PMS_P2;Temp;Humidity;BMP_temperature;BMP_pressure;BME280_temperature;BME280_humidity;BME280_pressure;Samples;Min_cycle;Max_cycle;Signal;HPM_P1;HPM_P2
2022/04/10 00:01:52;;;;;;;;;;;;;;;;;;4189604;28;1048;-68
2022/04/10 00:04:12;;;;;;;;;;;;;;;;;;4189331;28;1028;-68
2022/04/10 00:06:33;;;;;;;;;;;;;;;;;;4189575;28;878;-67
2022/04/10 00:08:54;;;;;;;;;;;;;;;;;;4189056;28;942;-68
2022/04/10 00:11:15;;;;;;;;;;;;;;;;;;4189382;28;957;-68
2022/04/10 00:13:35;;;;;;;;;;;;;;;;;;4189559;28;1108;-67
2022/04/10 00:15:56;;;;;;;;;;;;;;;;;;4189165;28;1914;-67
2022/04/10 00:18:16;;;;;;;;;;;;;;;;;;4189559;28;958;-68
2022/04/10 00:20:37;;;;;;;;;;;;;;;;;;4189041;28;1075;-68
2022/04/10 00:22:58;;;;;;;;;;;;;;;;;;4189155;28;877;-67
2022/04/10 00:25:19;;;;;;;;;;;;;;;;;;4188895;28;974;-68
2022/04/10 00:27:39;;;;;;;;;;;;;;;;;;4188676;28;1053;-68
2022/04/10 00:30:00;;;;;;;;;;;;;;;;;;4189095;28;874;-67
2022/04/10 00:32:21;;;;;;;;;;;;;;;;;;4187897;28;977;-67
2022/04/10 00:34:41;;;;;;;;;;;;;;;;;;4188830;28;1029;-68
2022/04/10 00:37:01;;;;;;;;;;;;;;;;;;4188919;28;1909;-68
2022/04/10 00:39:22;;;;;;;;;;;;;;;;;;4188025;28;840;-68
2022/04/10 00:41:43;;;;;;;;;;;;;;;;;;4188741;28;1266;-68
2022/04/10 00:44:03;;;;;;;;;;;;;;;;;;4188286;28;1080;-68
2022/04/10 00:46:25;;;;;;;;;;;;;;;;;;4188603;28;948;-68
2022/04/10 00:48:46;;;;;;;;;;;;;;;;;;4188841;28;1003;-68
2022/04/10 00:53:45;;;;;;;;;;;;;;;;;;4188454;28;847;-68
2022/04/10 00:56:06;;;;;;;;;;;;;;;;;;4187488;28;1914;-68
2022/04/10 00:58:27;;;;;;;;;;;;;;;;;;4187334;28;1018;-68
2022/04/10 01:03:57;;;;;;;;;;;;;;;;;;4177672;28;1891;-67
2022/04/10 01:06:18;;;;;;;;;;;;;;;;;;4170988;28;921;-68
2022/04/10 01:08:38;;;;;;;;;;;;;;;;;;4171061;28;1327;-68
2022/04/10 01:10:59;;;;;;;;;;;;;;;;;;4155522;28;1014;-68
2022/04/10 01:13:20;;;;;;;;;;;;;;;;;;4169762;28;971;-68
2022/04/10 01:15:40;;;;;;;;;;;;;;;;;;4156029;28;1983;-67
2022/04/10 01:18:02;;;;;;;;;;;;;;;;;;4172242;28;1184;-67
2022/04/10 01:20:23;;;;;;;;;;;;;;;;;;4169989;28;1032;-68
2022/04/10 01:22:46;;;;;;;;;;;;;;;;;;4170185;28;1059;-68
2022/04/10 01:25:08;;;;;;;;;;;;;;;;;;4170167;28;898;-67
2022/04/10 01:27:31;;;;;;;;;;;;;;;;;;4170208;28;916;-67
2022/04/10 01:29:51;;;;;;;;;;;;;;;;;;4170048;28;902;-68
2022/04/10 01:32:12;;;;;;;;;;;;;;;;;;4171642;28;1020;-67
2022/04/10 01:34:34;;;;;;;;;;;;;;;;;;4171495;28;1057;-67
2022/04/10 01:36:54;;;;;;;;;;;;;;;;;;4170465;28;1906;-67
2022/04/10 01:39:16;;;;;;;;;;;;;;;;;;4169972;28;1202;-68
2022/04/10 01:41:36;;;;;;;;;;;;;;;;;;4169909;28;1078;-67
2022/04/10 01:43:57;;;;;;;;;;;;;;;;;;4156287;28;980;-69
2022/04/10 01:46:17;;;;;;;;;;;;;;;;;;4165719;28;1338;-68
2022/04/10 01:48:38;;;;;;;;;;;;;;;;;;4187794;28;939;-67
2022/04/10 01:50:59;;;;;;;;;;;;;;;;;;4187681;28;789;-68
2022/04/10 01:53:20;;;;;;;;;;;;;;;;;;4185947;28;983;-68
2022/04/10 01:55:41;;;;;;;;;;;;;;;;;;4172480;28;1148;-68
2022/04/10 01:58:01;;;;;;;;;;;;;;;;;;4200401;28;1045;-68
2022/04/10 02:00:22;;;;;;;;;;;;;;;;;;4185792;28;1019;-68
2022/04/10 02:02:43;;;;;;;;;;;;;;;;;;4186383;28;1015;-68
2022/04/10 02:05:04;;;;;;;;;;;;;;;;;;4187174;28;958;-68
2022/04/10 02:07:24;;;;;;;;;;;;;;;;;;4186568;28;947;-68
2022/04/10 02:09:45;;;;;;;;;;;;;;;;;;4200385;28;1263;-68
2022/04/10 02:12:05;;;;;;;;;;;;;;;;;;4186485;28;834;-68
2022/04/10 02:14:26;;;;;;;;;;;;;;;;;;4185626;28;1283;-68
2022/04/10 02:16:47;;;;;;;;;;;;;;;;;;4171713;28;1906;-68
2022/04/10 02:19:07;;;;;;;;;;;;;;;;;;4185531;28;964;-67
2022/04/10 02:21:29;;;;;;;;;;;;;;;;;;4186892;28;1173;-68
2022/04/10 02:23:50;;;;;;;;;;;;;;;;;;4186200;28;1091;-68
2022/04/10 02:26:11;;;;;;;;;;;;;;;;;;4187302;28;1215;-68
2022/04/10 02:28:33;;;;;;;;;;;;;;;;;;4186283;28;1012;-68
2022/04/10 02:30:54;;;;;;;;;;;;;;;;;;4187387;28;834;-68
2022/04/10 02:33:15;;;;;;;;;;;;;;;;;;4171715;28;1128;-68
2022/04/10 02:35:36;;;;;;;;;;;;;;;;;;4186070;28;897;-68
2022/04/10 02:37:56;;;;;;;;;;;;;;;;;;4187177;28;1910;-68
2022/04/10 02:40:18;;;;;;;;;;;;;;;;;;4186107;28;826;-68
2022/04/10 02:42:39;;;;;;;;;;;;;;;;;;4185639;28;1185;-67
2022/04/10 02:45:00;;;;;;;;;;;;;;;;;;4186227;28;874;-68
2022/04/10 02:47:20;;;;;;;;;;;;;;;;;;4187072;28;947;-68
2022/04/10 02:49:41;;;;;;;;;;;;;;;;;;4186135;28;948;-68
2022/04/10 02:52:02;;;;;;;;;;;;;;;;;;4185604;28;922;-68
2022/04/10 02:54:22;;;;;;;;;;;;;;;;;;4186137;28;1010;-68
2022/04/10 02:57:02;;;;;;;;;;;;;;;;;;4186052;28;1999;-68
2022/04/10 02:59:41;;;;;;;;;;;;;;;;;;4185271;28;964;-68
2022/04/10 03:02:21;;;;;;;;;;;;;;;;;;4185186;28;829;-68
2022/04/10 03:05:00;;;;;;;;;;;;;;;;;;4185897;28;943;-68
2022/04/10 03:07:40;;;;;;;;;;;;;;;;;;4185018;28;1225;-68
2022/04/10 03:10:20;;;;;;;;;;;;;;;;;;4184913;28;1002;-68
2022/04/10 03:13:00;;;;;;;;;;;;;;;;;;4196633;28;836;-68
2022/04/10 03:15:39;;;;;;;;;;;;;;;;;;4185100;28;929;-68
2022/04/10 03:18:19;;;;;;;;;;;;;;;;;;4184872;28;1992;-68
2022/04/10 03:20:59;;;;;;;;;;;;;;;;;;4185387;28;1015;-67
2022/04/10 03:23:39;;;;;;;;;;;;;;;;;;4185227;28;989;-67
2022/04/10 03:26:18;;;;;;;;;;;;;;;;;;4185366;28;1035;-68
2022/04/10 03:28:58;;;;;;;;;;;;;;;;;;4185556;28;902;-67
2022/04/10 03:31:37;;;;;;;;;;;;;;;;;;4199299;28;1015;-67
2022/04/10 03:34:17;;;;;;;;;;;;;;;;;;4188340;28;1213;-67
2022/04/10 03:36:57;;;;;;;;;;;;;;;;;;4187635;28;1905;-67
2022/04/10 03:39:37;;;;;;;;;;;;;;;;;;4187138;28;1217;-67
2022/04/10 03:42:17;;;;;;;;;;;;;;;;;;4199714;28;1119;-68
2022/04/10 03:44:57;;;;;;;;;;;;;;;;;;4199060;28;1124;-67
2022/04/10 03:47:37;;;;;;;;;;;;;;;;;;4187861;28;1109;-67
2022/04/10 03:50:16;;;;;;;;;;;;;;;;;;4199580;28;884;-67
2022/04/10 03:52:55;;;;;;;;;;;;;;;;;;4199168;28;970;-67
2022/04/10 03:55:35;;;;;;;;;;;;;;;;;;4188515;28;1209;-68
2022/04/10 03:58:17;;;;;;;;;;;;;;;;;;4187754;28;1910;-68
2022/04/10 04:00:57;;;;;;;;;;;;;;;;;;4188569;28;855;-68
2022/04/10 04:03:36;;;;;;;;;;;;;;;;;;4199583;28;758;-67
2022/04/10 04:06:17;;;;;;;;;;;;;;;;;;4198773;28;1158;-67
2022/04/10 04:08:56;;;;;;;;;;;;;;;;;;4187201;28;1011;-67
2022/04/10 04:11:36;;;;;;;;;;;;;;;;;;4199814;28;990;-68
2022/04/10 04:14:16;;;;;;;;;;;;;;;;;;4186839;28;996;-68
2022/04/10 04:16:55;;;;;;;;;;;;;;;;;;4187573;28;1975;-67
2022/04/10 04:19:35;;;;;;;;;;;;;;;;;;4187836;28;1161;-67
2022/04/10 04:22:14;;;;;;;;;;;;;;;;;;4186675;28;1014;-67
2022/04/10 04:24:53;;;;;;;;;;;;;;;;;;4187387;28;884;-68
2022/04/10 04:27:33;;;;;;;;;;;;;;;;;;4186969;28;1084;-67
2022/04/10 04:30:12;;;;;;;;;;;;;;;;;;4187088;28;831;-68
2022/04/10 04:32:56;;;;;;;;;;;;;;;;;;4186202;28;1352;-67
2022/04/10 04:35:35;;;;;;;;;;;;;;;;;;4186399;28;1188;-67
2022/04/10 04:38:17;;;;;;;;;;;;;;;;;;4185677;28;1901;-68
2022/04/10 04:40:57;;;;;;;;;;;;;;;;;;4197567;28;1235;-68
2022/04/10 04:43:37;;;;;;;;;;;;;;;;;;4197674;28;929;-67
2022/04/10 04:46:16;;;;;;;;;;;;;;;;;;4197379;28;1060;-67
2022/04/10 04:48:56;;;;;;;;;;;;;;;;;;4186184;28;1023;-67
2022/04/10 04:51:36;;;;;;;;;;;;;;;;;;4197987;28;1476;-67
2022/04/10 04:54:16;;;;;;;;;;;;;;;;;;4186442;28;892;-67
2022/04/10 04:56:55;;;;;;;;;;;;;;;;;;4187584;28;1001;-67
2022/04/10 04:59:37;;;;;;;;;;;;;;;;;;4186496;28;1309;-67
2022/04/10 05:02:17;;;;;;;;;;;;;;;;;;4184042;28;1867;-67
2022/04/10 05:04:56;;;;;;;;;;;;;;;;;;4185233;28;1558;-67
2022/04/10 05:07:36;;;;;;;;;;;;;;;;;;4185609;28;2091;-67
2022/04/10 05:10:16;;;;;;;;;;;;;;;;;;4198075;28;1001;-68
2022/04/10 05:12:55;;;;;;;;;;;;;;;;;;4186772;28;835;-68
2022/04/10 05:15:38;;;;;;;;;;;;;;;;;;4187143;28;1232;-67
2022/04/10 05:18:19;;;;;;;;;;;;;;;;;;4186830;28;1983;-66
2022/04/10 05:21:01;;;;;;;;;;;;;;;;;;4180473;28;1544;-66
2022/04/10 05:23:40;;;;;;;;;;;;;;;;;;4185889;28;1461;-67
2022/04/10 05:26:25;;;;;;;;;;;;;;;;;;4187052;28;1150;-65
2022/04/10 05:29:09;;;;;;;;;;;;;;;;;;4170358;28;990;-66
2022/04/10 05:31:49;;;;;;;;;;;;;;;;;;4169832;28;1131;-66
2022/04/10 05:34:28;;;;;;;;;;;;;;;;;;4169914;28;1282;-67
2022/04/10 05:37:08;;;;;;;;;;;;;;;;;;4170332;28;945;-66
2022/04/10 05:39:52;;;;;;;;;;;;;;;;;;4181874;28;1034;-66
2022/04/10 05:42:32;;;;;;;;;;;;;;;;;;4181014;28;1040;-66
2022/04/10 05:45:11;;;;;;;;;;;;;;;;;;4170234;28;972;-66
2022/04/10 05:47:53;;;;;;;;;;;;;;;;;;4173931;28;1388;-67
2022/04/10 05:50:35;;;;;;;;;;;;;;;;;;4187192;28;876;-67
2022/04/10 05:53:14;;;;;;;;;;;;;;;;;;4186354;28;1163;-66
2022/04/10 05:55:54;;;;;;;;;;;;;;;;;;4187122;28;953;-67
2022/04/10 05:58:38;;;;;;;;;;;;;;;;;;4186919;28;1914;-67
2022/04/10 06:01:17;;;;;;;;;;;;;;;;;;4187332;28;1035;-67
2022/04/10 06:03:58;;;;;;;;;;;;;;;;;;4186538;28;981;-67
2022/04/10 06:06:37;;;;;;;;;;;;;;;;;;4186288;28;1096;-67
2022/04/10 06:09:26;;;;;;;;;;;;;;;;;;4187503;28;888;-67
2022/04/10 06:12:06;;;;;;;;;;;;;;;;;;4186492;28;837;-67
2022/04/10 06:14:52;;;;;;;;;;;;;;;;;;4186352;28;1272;-67
2022/04/10 06:17:13;;;;;;;;;;;;;;;;;;4186333;28;998;-67
2022/04/10 06:19:34;;;;;;;;;;;;;;;;;;4172138;28;963;-68
2022/04/10 06:21:55;;;;;;;;;;;;;;;;;;4169744;28;849;-67
2022/04/10 06:24:16;;;;;;;;;;;;;;;;;;4192010;28;2165;-68
2022/04/10 06:26:38;;;;;;;;;;;;;;;;;;4186653;28;976;-68
2022/04/10 06:28:58;;;;;;;;;;;;;;;;;;4186560;28;1066;-69
2022/04/10 06:31:27;;;;;;;;;;;;;;;;;;4186516;28;955;-68
2022/04/10 06:33:49;;;;;;;;;;;;;;;;;;4185865;28;1185;-68
2022/04/10 06:36:10;;;;;;;;;;;;;;;;;;4186526;28;860;-69
2022/04/10 06:38:32;;;;;;;;;;;;;;;;;;4187425;28;1995;-69
2022/04/10 06:41:03;;;;;;;;;;;;;;;;;;4185716;28;995;-68
2022/04/10 06:43:24;;;;;;;;;;;;;;;;;;4200081;28;1575;-69
2022/04/10 06:46:08;;;;;;;;;;;;;;;;;;4172404;28;1353;-68
2022/04/10 06:48:36;;;;;;;;;;;;;;;;;;4186227;28;1032;-68
2022/04/10 06:50:58;;;;;;;;;;;;;;;;;;4185873;28;945;-68
2022/04/10 06:53:23;;;;;;;;;;;;;;;;;;4186225;28;1087;-69
2022/04/10 06:55:44;;;;;;;;;;;;;;;;;;4186348;28;964;-69
2022/04/10 06:58:04;;;;;;;;;;;;;;;;;;4186071;28;1987;-69
2022/04/10 07:00:25;;;;;;;;;;;;;;;;;;4186024;28;829;-68
2022/04/10 07:02:45;;;;;;;;;;;;;;;;;;4187083;28;944;-69
2022/04/10 07:05:06;;;;;;;;;;;;;;;;;;4185957;28;843;-68
2022/04/10 07:07:31;;;;;;;;;;;;;;;;;;4185591;28;1116;-68
2022/04/10 07:09:58;;;;;;;;;;;;;;;;;;4186879;28;844;-69
2022/04/10 07:12:19;;;;;;;;;;;;;;;;;;4185334;28;941;-68
2022/04/10 07:14:45;;;;;;;;;;;;;;;;;;4184748;28;1339;-68
2022/04/10 07:17:07;;;;;;;;;;;;;;;;;;4186634;28;988;-68
2022/04/10 07:19:28;;;;;;;;;;;;;;;;;;4186553;28;1906;-68
2022/04/10 07:24:32;;;;;;;;;;;;;;;;;;4184740;28;987;-68
2022/04/10 07:26:54;;;;;;;;;;;;;;;;;;4186639;28;951;-68
2022/04/10 07:29:22;;;;;;;;;;;;;;;;;;4199298;28;1041;-68
2022/04/10 07:31:44;;;;;;;;;;;;;;;;;;4199368;28;897;-69
2022/04/10 07:34:05;;;;;;;;;;;;;;;;;;4180854;28;2476;-68
2022/04/10 07:36:46;;;;;;;;;;;;;;;;;;4177302;28;1130;-69
2022/04/10 07:39:06;;;;;;;;;;;;;;;;;;4185256;28;1973;-68
2022/04/10 07:41:32;;;;;;;;;;;;;;;;;;4198676;28;1424;-71
2022/04/10 07:43:54;;;;;;;;;;;;;;;;;;4184424;28;1412;-68
2022/04/10 07:48:58;;;;;;;;;;;;;;;;;;4185212;28;1075;-69
2022/04/10 07:51:22;;;;;;;;;;;;;;;;;;4185024;28;1020;-68
2022/04/10 07:53:53;;;;;;;;;;;;;;;;;;4184796;28;1547;-70
2022/04/10 07:56:14;;;;;;;;;;;;;;;;;;4185333;28;849;-69
2022/04/10 07:58:36;;;;;;;;;;;;;;;;;;4170869;28;1905;-68
2022/04/10 08:01:04;;;;;;;;;;;;;;;;;;4185437;28;953;-67
2022/04/10 08:03:26;;;;;;;;;;;;;;;;;;4184921;28;1371;-69
2022/04/10 08:06:10;;;;;;;;;;;;;;;;;;4178678;28;1053;-68
2022/04/10 08:08:33;;;;;;;;;;;;;;;;;;4170813;28;1215;-66
2022/04/10 08:10:54;;;;;;;;;;;;;;;;;;4172460;28;922;-66
2022/04/10 08:13:15;;;;;;;;;;;;;;;;;;4171791;28;1004;-65
2022/04/10 08:15:36;;;;;;;;;;;;;;;;;;4173859;28;974;-65
2022/04/10 08:17:56;;;;;;;;;;;;;;;;;;4174666;28;1016;-64
2022/04/10 08:20:17;;;;;;;;;;;;;;;;;;4173775;28;1258;-65
2022/04/10 08:22:39;;;;;;;;;;;;;;;;;;4191071;28;1349;-64
2022/04/10 08:25:01;;;;;;;;;;;;;;;;;;4174566;28;1337;-64
2022/04/10 08:27:24;;;;;;;;;;;;;;;;;;4191605;28;982;-62
2022/04/10 08:29:47;;;;;;;;;;;;;;;;;;4191333;28;977;-62
2022/04/10 08:32:08;;;;;;;;;;;;;;;;;;4191409;28;1013;-62
2022/04/10 08:34:28;;;;;;;;;;;;;;;;;;4190815;28;1297;-62
2022/04/10 08:36:49;;;;;;;;;;;;;;;;;;4191302;28;973;-62
2022/04/10 08:39:10;;;;;;;;;;;;;;;;;;4191313;28;1977;-63
2022/04/10 08:41:31;;;;;;;;;;;;;;;;;;4191387;28;1106;-63
2022/04/10 08:43:52;;;;;;;;;;;;;;;;;;4191295;28;1179;-62
2022/04/10 08:46:13;;;;;;;;;;;;;;;;;;4191390;28;1070;-63
2022/04/10 08:48:34;;;;;;;;;;;;;;;;;;4190963;28;951;-62
2022/04/10 08:50:55;;;;;;;;;;;;;;;;;;4191247;28;1009;-62
2022/04/10 08:53:16;;;;;;;;;;;;;;;;;;4191283;28;1003;-62
2022/04/10 08:55:37;;;;;;;;;;;;;;;;;;4191301;28;1162;-63
2022/04/10 08:57:58;;;;;;;;;;;;;;;;;;4190694;28;1216;-61
2022/04/10 09:00:19;;;;;;;;;;;;;;;;;;4189285;28;1981;-65
2022/04/10 09:02:39;;;;;;;;;;;;;;;;;;4188121;28;1092;-62
2022/04/10 09:05:00;;;;;;;;;;;;;;;;;;4189992;28;961;-64
2022/04/10 09:07:21;;;;;;;;;;;;;;;;;;4190244;28;1157;-63
2022/04/10 09:09:41;;;;;;;;;;;;;;;;;;4189468;28;961;-65
2022/04/10 09:12:02;;;;;;;;;;;;;;;;;;4190147;28;979;-64
2022/04/10 09:14:23;;;;;;;;;;;;;;;;;;4189400;28;974;-63
2022/04/10 09:16:44;;;;;;;;;;;;;;;;;;4184397;28;1450;-65
2022/04/10 09:19:06;;;;;;;;;;;;;;;;;;4173381;28;1906;-63
2022/04/10 09:21:28;;;;;;;;;;;;;;;;;;4173721;28;1184;-63
2022/04/10 09:23:48;;;;;;;;;;;;;;;;;;4173793;28;886;-63
2022/04/10 09:26:09;;;;;;;;;;;;;;;;;;4173099;28;924;-64
2022/04/10 09:28:29;;;;;;;;;;;;;;;;;;4173391;28;874;-63
2022/04/10 09:30:50;;;;;;;;;;;;;;;;;;4173742;28;1090;-64
2022/04/10 09:33:10;;;;;;;;;;;;;;;;;;4173564;28;1109;-63
2022/04/10 09:35:33;;;;;;;;;;;;;;;;;;4173578;28;1058;-63
2022/04/10 09:37:53;;;;;;;;;;;;;;;;;;4173545;28;948;-64
2022/04/10 09:40:14;;;;;;;;;;;;;;;;;;4173271;28;1898;-63
2022/04/10 09:42:35;;;;;;;;;;;;;;;;;;4173446;28;971;-63
2022/04/10 09:44:55;;;;;;;;;;;;;;;;;;4173563;28;1205;-64
2022/04/10 09:47:16;;;;;;;;;;;;;;;;;;4173432;28;1013;-63
2022/04/10 09:49:37;;;;;;;;;;;;;;;;;;4173265;28;966;-62
2022/04/10 09:51:57;;;;;;;;;;;;;;;;;;4172383;28;1153;-64
2022/04/10 09:54:18;;;;;;;;;;;;;;;;;;4173308;28;1012;-63
2022/04/10 09:56:39;;;;;;;;;;;;;;;;;;4173514;28;1024;-64
2022/04/10 09:58:59;;;;;;;;;;;;;;;;;;4173012;28;1981;-63
2022/04/10 10:01:20;;;;;;;;;;;;;;;;;;4173287;28;956;-63
2022/04/10 10:03:41;;;;;;;;;;;;;;;;;;4173154;28;1134;-64
2022/04/10 10:06:02;;;;;;;;;;;;;;;;;;4172037;28;1042;-64
2022/04/10 10:08:22;;;;;;;;;;;;;;;;;;4173384;28;1272;-64
2022/04/10 10:10:43;;;;;;;;;;;;;;;;;;4173480;28;945;-65
2022/04/10 10:13:03;;;;;;;;;;;;;;;;;;4172806;28;1053;-64
2022/04/10 10:15:24;;;;;;;;;;;;;;;;;;4172372;28;1019;-64
2022/04/10 10:17:45;;;;;;;;;;;;;;;;;;4171207;28;1206;-64
2022/04/10 10:20:06;;;;;;;;;;;;;;;;;;4170988;28;1985;-64
2022/04/10 10:22:26;;;;;;;;;;;;;;;;;;4171175;28;1028;-64
2022/04/10 10:24:47;;;;;;;;;;;;;;;;;;4171083;28;813;-64
2022/04/10 10:27:08;;;;;;;;;;;;;;;;;;4171329;28;817;-64
2022/04/10 10:29:29;;;;;;;;;;;;;;;;;;4170879;28;1017;-64
2022/04/10 10:31:50;;;;;;;;;;;;;;;;;;4171204;28;1189;-64
2022/04/10 10:34:10;;;;;;;;;;;;;;;;;;4170700;28;1071;-64
2022/04/10 10:36:31;;;;;;;;;;;;;;;;;;4170789;28;1279;-64
2022/04/10 10:38:52;;;;;;;;;;;;;;;;;;4170157;28;1071;-64
2022/04/10 10:41:13;;;;;;;;;;;;;;;;;;4170583;28;2005;-64
2022/04/10 10:43:34;;;;;;;;;;;;;;;;;;4179016;28;1751;-64
2022/04/10 10:45:55;;;;;;;;;;;;;;;;;;4186928;28;1299;-63
2022/04/10 10:48:15;;;;;;;;;;;;;;;;;;4186937;28;1452;-64
2022/04/10 10:50:36;;;;;;;;;;;;;;;;;;4187256;28;822;-64
2022/04/10 10:52:56;;;;;;;;;;;;;;;;;;4186908;28;1024;-65
2022/04/10 10:55:17;;;;;;;;;;;;;;;;;;4172762;28;2419;-64
2022/04/10 10:57:39;;;;;;;;;;;;;;;;;;4185795;28;941;-64
2022/04/10 11:00:00;;;;;;;;;;;;;;;;;;4185118;28;1910;-63
2022/04/10 11:02:21;;;;;;;;;;;;;;;;;;4186199;28;1569;-63
2022/04/10 11:04:42;;;;;;;;;;;;;;;;;;4175921;28;2667;-64
2022/04/10 11:07:02;;;;;;;;;;;;;;;;;;4174543;28;1034;-63
2022/04/10 11:09:23;;;;;;;;;;;;;;;;;;4170190;28;1034;-64
2022/04/10 11:11:43;;;;;;;;;;;;;;;;;;4178260;28;1338;-64
2022/04/10 11:14:04;;;;;;;;;;;;;;;;;;4171891;28;1908;-64
2022/04/10 11:16:24;;;;;;;;;;;;;;;;;;4186798;28;939;-63
2022/04/10 11:18:45;;;;;;;;;;;;;;;;;;4179922;28;2047;-63
2022/04/10 11:21:06;;;;;;;;;;;;;;;;;;4170128;28;1993;-64
2022/04/10 11:23:26;;;;;;;;;;;;;;;;;;4170311;28;974;-64
2022/04/10 11:25:47;;;;;;;;;;;;;;;;;;4168971;28;1340;-63
2022/04/10 11:28:08;;;;;;;;;;;;;;;;;;4186757;28;1012;-64
2022/04/10 11:30:28;;;;;;;;;;;;;;;;;;4180887;28;957;-64
2022/04/10 11:32:49;;;;;;;;;;;;;;;;;;4170137;28;1178;-63
2022/04/10 11:35:10;;;;;;;;;;;;;;;;;;4178198;28;2115;-64
2022/04/10 11:37:30;;;;;;;;;;;;;;;;;;4176299;28;1502;-64
2022/04/10 11:39:54;;;;;;;;;;;;;;;;;;4184964;28;1887;-65
2022/04/10 11:42:14;;;;;;;;;;;;;;;;;;4169854;28;1015;-64
2022/04/10 11:44:35;;;;;;;;;;;;;;;;;;4185315;28;828;-64
2022/04/10 11:46:56;;;;;;;;;;;;;;;;;;4185812;28;1440;-64
2022/04/10 11:49:17;;;;;;;;;;;;;;;;;;4186417;28;1218;-64
2022/04/10 11:51:38;;;;;;;;;;;;;;;;;;4189191;28;1050;-64
2022/04/10 11:53:59;;;;;;;;;;;;;;;;;;4189203;28;1147;-64
2022/04/10 11:56:20;;;;;;;;;;;;;;;;;;4183491;28;1345;-66
2022/04/10 11:58:40;;;;;;;;;;;;;;;;;;4172395;28;972;-64
2022/04/10 12:01:01;;;;;;;;;;;;;;;;;;4171892;28;1965;-64
2022/04/10 12:03:22;;;;;;;;;;;;;;;;;;4172176;28;830;-63
2022/04/10 12:05:43;;;;;;;;;;;;;;;;;;4172067;28;945;-64
2022/04/10 12:08:09;;;;;;;;;;;;;;;;;;4171781;28;1195;-64
2022/04/10 12:10:29;;;;;;;;;;;;;;;;;;4181277;28;1123;-64
2022/04/10 12:12:50;;;;;;;;;;;;;;;;;;4171218;28;966;-63
2022/04/10 12:15:11;;;;;;;;;;;;;;;;;;4171883;28;903;-65
2022/04/10 12:17:31;;;;;;;;;;;;;;;;;;4173998;28;1535;-64
2022/04/10 12:19:52;;;;;;;;;;;;;;;;;;4187777;28;1963;-64
2022/04/10 12:22:13;;;;;;;;;;;;;;;;;;4184899;28;1535;-64
2022/04/10 12:24:34;;;;;;;;;;;;;;;;;;4185434;28;1938;-65
2022/04/10 12:26:54;;;;;;;;;;;;;;;;;;4187069;28;1395;-64
2022/04/10 12:29:15;;;;;;;;;;;;;;;;;;4185928;28;1215;-63
2022/04/10 12:31:36;;;;;;;;;;;;;;;;;;4171157;28;943;-64
2022/04/10 12:33:56;;;;;;;;;;;;;;;;;;4174008;28;1291;-64
2022/04/10 12:36:17;;;;;;;;;;;;;;;;;;4188740;28;1292;-64
2022/04/10 12:38:37;;;;;;;;;;;;;;;;;;4187897;28;1046;-64
2022/04/10 12:40:58;;;;;;;;;;;;;;;;;;4188840;28;1980;-65
2022/04/10 12:43:19;;;;;;;;;;;;;;;;;;4188863;28;1102;-64
2022/04/10 12:45:39;;;;;;;;;;;;;;;;;;4188637;28;970;-64
2022/04/10 12:48:00;;;;;;;;;;;;;;;;;;4188513;28;1196;-64
2022/04/10 12:50:21;;;;;;;;;;;;;;;;;;4188662;28;1018;-65
2022/04/10 12:52:41;;;;;;;;;;;;;;;;;;4187714;28;1200;-64
2022/04/10 12:55:02;;;;;;;;;;;;;;;;;;4188593;28;942;-64
2022/04/10 12:57:23;;;;;;;;;;;;;;;;;;4187122;28;1046;-64
2022/04/10 12:59:44;;;;;;;;;;;;;;;;;;4187820;28;935;-64
2022/04/10 13:02:04;;;;;;;;;;;;;;;;;;4187221;28;1425;-64
2022/04/10 13:04:25;;;;;;;;;;;;;;;;;;4188445;28;1010;-64
2022/04/10 13:06:46;;;;;;;;;;;;;;;;;;4188112;28;1077;-64
2022/04/10 13:09:06;;;;;;;;;;;;;;;;;;4188187;28;962;-64
2022/04/10 13:11:27;;;;;;;;;;;;;;;;;;4188339;28;1012;-64
2022/04/10 13:13:49;;;;;;;;;;;;;;;;;;4187319;28;1052;-64
2022/04/10 13:16:09;;;;;;;;;;;;;;;;;;4188507;28;1035;-65
2022/04/10 13:18:31;;;;;;;;;;;;;;;;;;4188230;28;943;-64
2022/04/10 13:20:51;;;;;;;;;;;;;;;;;;4186589;28;1917;-64
2022/04/10 13:23:12;;;;;;;;;;;;;;;;;;4169862;28;2695;-64
2022/04/10 13:25:35;;;;;;;;;;;;;;;;;;4171023;28;2635;-64
2022/04/10 13:27:55;;;;;;;;;;;;;;;;;;4168750;28;1176;-64
2022/04/10 13:30:16;;;;;;;;;;;;;;;;;;4178829;28;985;-66
2022/04/10 13:32:37;;;;;;;;;;;;;;;;;;4186518;28;973;-64
2022/04/10 13:34:57;;;;;;;;;;;;;;;;;;4186331;28;1449;-65
2022/04/10 13:37:18;;;;;;;;;;;;;;;;;;4186738;28;1633;-64
2022/04/10 13:39:39;;;;;;;;;;;;;;;;;;4178830;28;1684;-64
2022/04/10 13:41:59;;;;;;;;;;;;;;;;;;4185980;28;1905;-65
2022/04/10 13:44:20;;;;;;;;;;;;;;;;;;4184200;28;1492;-64
2022/04/10 13:46:41;;;;;;;;;;;;;;;;;;4184316;28;1318;-65
2022/04/10 13:49:02;;;;;;;;;;;;;;;;;;4187484;28;810;-66
2022/04/10 13:51:23;;;;;;;;;;;;;;;;;;4187343;28;1005;-64
2022/04/10 13:53:44;;;;;;;;;;;;;;;;;;4187293;28;974;-65
2022/04/10 13:56:04;;;;;;;;;;;;;;;;;;4187374;28;1071;-64
2022/04/10 13:58:25;;;;;;;;;;;;;;;;;;4186629;28;1287;-64
2022/04/10 14:00:46;;;;;;;;;;;;;;;;;;4185511;28;1905;-64
2022/04/10 14:03:07;;;;;;;;;;;;;;;;;;4186653;28;906;-64
2022/04/10 14:05:28;;;;;;;;;;;;;;;;;;4173169;28;1733;-65
2022/04/10 14:07:48;;;;;;;;;;;;;;;;;;4171129;28;1885;-64
2022/04/10 14:10:09;;;;;;;;;;;;;;;;;;4168538;28;2375;-65
2022/04/10 14:12:30;;;;;;;;;;;;;;;;;;4181684;28;1775;-66
2022/04/10 14:14:51;;;;;;;;;;;;;;;;;;4170552;28;1679;-64
2022/04/10 14:17:12;;;;;;;;;;;;;;;;;;4169768;28;1025;-66
2022/04/10 14:19:32;;;;;;;;;;;;;;;;;;4171122;28;1052;-65
2022/04/10 14:21:53;;;;;;;;;;;;;;;;;;4169560;28;1938;-65
2022/04/10 14:24:14;;;;;;;;;;;;;;;;;;4175491;28;1046;-64
2022/04/10 14:26:34;;;;;;;;;;;;;;;;;;4186338;28;1281;-65
2022/04/10 14:28:55;;;;;;;;;;;;;;;;;;4186784;28;1094;-65
2022/04/10 14:31:17;;;;;;;;;;;;;;;;;;4186951;28;966;-65
2022/04/10 14:33:37;;;;;;;;;;;;;;;;;;4186840;28;1306;-65
2022/04/10 14:35:59;;;;;;;;;;;;;;;;;;4187027;28;1751;-66
2022/04/10 14:38:20;;;;;;;;;;;;;;;;;;4186963;28;1082;-65
2022/04/10 14:40:40;;;;;;;;;;;;;;;;;;4186536;28;1906;-64
2022/04/10 14:43:01;;;;;;;;;;;;;;;;;;4176884;28;2611;-65
2022/04/10 14:45:22;;;;;;;;;;;;;;;;;;4170107;28;1059;-63
2022/04/10 14:47:42;;;;;;;;;;;;;;;;;;4169320;28;935;-64
2022/04/10 14:50:03;;;;;;;;;;;;;;;;;;4170451;28;881;-64
2022/04/10 14:52:24;;;;;;;;;;;;;;;;;;4176227;28;2096;-66
2022/04/10 14:54:45;;;;;;;;;;;;;;;;;;4186432;28;1268;-64
2022/04/10 14:57:07;;;;;;;;;;;;;;;;;;4186581;28;1342;-64
2022/04/10 14:59:27;;;;;;;;;;;;;;;;;;4181611;28;1331;-65
2022/04/10 15:01:48;;;;;;;;;;;;;;;;;;4184862;28;1980;-64
2022/04/10 15:04:09;;;;;;;;;;;;;;;;;;4185155;28;1029;-62
2022/04/10 15:06:30;;;;;;;;;;;;;;;;;;4185171;28;848;-67
2022/04/10 15:08:51;;;;;;;;;;;;;;;;;;4179683;28;2093;-65
2022/04/10 15:11:12;;;;;;;;;;;;;;;;;;4169454;28;1268;-64
2022/04/10 15:13:35;;;;;;;;;;;;;;;;;;4183778;28;1115;-65
2022/04/10 15:15:56;;;;;;;;;;;;;;;;;;4184036;28;862;-65
2022/04/10 15:18:17;;;;;;;;;;;;;;;;;;4183055;28;958;-63
2022/04/10 15:20:38;;;;;;;;;;;;;;;;;;4183658;28;1010;-66
2022/04/10 15:22:58;;;;;;;;;;;;;;;;;;4183839;28;867;-62
2022/04/10 15:25:19;;;;;;;;;;;;;;;;;;4183603;28;1292;-64
2022/04/10 15:27:40;;;;;;;;;;;;;;;;;;4173858;28;1235;-65
2022/04/10 15:30:00;;;;;;;;;;;;;;;;;;4185031;28;1071;-64
2022/04/10 15:32:22;;;;;;;;;;;;;;;;;;4183691;28;1116;-64
2022/04/10 15:34:42;;;;;;;;;;;;;;;;;;4184925;28;1065;-63
2022/04/10 15:37:03;;;;;;;;;;;;;;;;;;4184707;28;1105;-63
2022/04/10 15:39:24;;;;;;;;;;;;;;;;;;4182672;28;927;-63
2022/04/10 15:41:44;;;;;;;;;;;;;;;;;;4184540;28;1914;-64
2022/04/10 15:44:05;;;;;;;;;;;;;;;;;;4184408;28;1296;-64
2022/04/10 15:46:27;;;;;;;;;;;;;;;;;;4184998;28;955;-64
2022/04/10 15:48:48;;;;;;;;;;;;;;;;;;4184882;28;1000;-63
2022/04/10 15:51:09;;;;;;;;;;;;;;;;;;4184694;28;822;-64
2022/04/10 15:53:29;;;;;;;;;;;;;;;;;;4186504;28;1205;-63
2022/04/10 15:55:50;;;;;;;;;;;;;;;;;;4186456;28;948;-64
2022/04/10 15:58:16;;;;;;;;;;;;;;;;;;4172173;28;2665;-64
2022/04/10 16:00:37;;;;;;;;;;;;;;;;;;4168406;28;986;-63
2022/04/10 16:02:57;;;;;;;;;;;;;;;;;;4172376;28;2039;-64
2022/04/10 16:05:18;;;;;;;;;;;;;;;;;;4184392;28;1278;-64
2022/04/10 16:07:38;;;;;;;;;;;;;;;;;;4184568;28;1065;-63
2022/04/10 16:09:59;;;;;;;;;;;;;;;;;;4184344;28;1140;-63
2022/04/10 16:12:20;;;;;;;;;;;;;;;;;;4184557;28;1164;-63
2022/04/10 16:14:41;;;;;;;;;;;;;;;;;;4185117;28;1036;-64
2022/04/10 16:17:01;;;;;;;;;;;;;;;;;;4184783;28;1277;-63
2022/04/10 16:19:22;;;;;;;;;;;;;;;;;;4184675;28;986;-64
2022/04/10 16:21:43;;;;;;;;;;;;;;;;;;4184464;28;1906;-64
2022/04/10 16:24:03;;;;;;;;;;;;;;;;;;4184464;28;938;-63
2022/04/10 16:26:24;;;;;;;;;;;;;;;;;;4183726;28;979;-63
2022/04/10 16:31:23;;;;;;;;;;;;;;;;;;4184405;28;1292;-64
2022/04/10 16:36:22;;;;;;;;;;;;;;;;;;4185476;28;1017;-64
2022/04/10 16:38:43;;;;;;;;;;;;;;;;;;4187029;28;1052;-64
2022/04/10 16:41:03;;;;;;;;;;;;;;;;;;4187139;28;996;-63
2022/04/10 16:43:24;;;;;;;;;;;;;;;;;;4186960;28;866;-63
2022/04/10 16:45:45;;;;;;;;;;;;;;;;;;4184977;28;1078;-63
2022/04/10 16:48:06;;;;;;;;;;;;;;;;;;4186726;28;1006;-64
2022/04/10 16:50:27;;;;;;;;;;;;;;;;;;4187051;28;843;-63
2022/04/10 16:52:47;;;;;;;;;;;;;;;;;;4186968;28;1364;-63
2022/04/10 16:55:08;;;;;;;;;;;;;;;;;;4187287;28;864;-64
2022/04/10 16:57:29;;;;;;;;;;;;;;;;;;4186758;28;1325;-64
2022/04/10 16:59:50;;;;;;;;;;;;;;;;;;4186887;28;960;-63
2022/04/10 17:02:10;;;;;;;;;;;;;;;;;;4186704;28;1909;-64
2022/04/10 17:04:32;;;;;;;;;;;;;;;;;;4187032;28;1024;-63
2022/04/10 17:06:52;;;;;;;;;;;;;;;;;;4186762;28;856;-63